createdAt,value
2023-03-29T00:01:43.086Z,3.90
2023-03-29T00:04:19.266Z,3.31
2023-03-29T00:06:46.559Z,3.38
2023-03-29T00:09:16.160Z,3.79
2023-03-29T00:11:42.812Z,3.65
2023-03-29T00:14:09.423Z,3.78
2023-03-29T00:16:36.045Z,3.61
2023-03-29T00:19:02.938Z,3.61
2023-03-29T00:21:29.531Z,3.85
2023-03-29T00:23:56.842Z,3.15
2023-03-29T00:26:23.545Z,3.33
2023-03-29T00:28:50.190Z,3.57
2023-03-29T00:31:17.185Z,3.43
2023-03-29T00:33:43.957Z,3.29
2023-03-29T00:36:11.183Z,3.11
2023-03-29T00:38:38.182Z,2.79
2023-03-29T00:41:05.253Z,3.14
2023-03-29T00:43:31.926Z,3.41
2023-03-29T00:45:58.560Z,3.23
2023-03-29T00:48:27.980Z,3.43
2023-03-29T00:50:56.139Z,3.18
2023-03-29T00:53:47.169Z,3.38
2023-03-29T00:56:40.069Z,3.19
2023-03-29T00:59:11.923Z,3.33
2023-03-29T01:01:52.041Z,3.17
2023-03-29T01:04:26.170Z,3.06
2023-03-29T01:06:59.691Z,3.27
2023-03-29T01:09:26.473Z,3.08
2023-03-29T01:11:54.783Z,3.41
2023-03-29T01:14:58.567Z,3.34
2023-03-29T01:17:25.612Z,3.06
2023-03-29T01:20:31.937Z,3.18
2023-03-29T01:23:07.544Z,3.41
2023-03-29T01:25:46.215Z,3.41
2023-03-29T01:28:23.234Z,3.04
2023-03-29T01:31:04.694Z,3.40
2023-03-29T01:33:33.051Z,3.42
2023-03-29T01:36:01.511Z,3.30
2023-03-29T01:38:30.887Z,3.21
2023-03-29T01:40:57.570Z,3.13
2023-03-29T01:43:53.024Z,3.14
2023-03-29T01:46:32.677Z,3.32
2023-03-29T01:49:13.032Z,3.36
2023-03-29T01:51:42.208Z,3.08
2023-03-29T01:54:15.410Z,2.92
2023-03-29T01:56:42.435Z,3.19
2023-03-29T01:59:12.017Z,3.43
2023-03-29T02:01:43.436Z,3.40
2023-03-29T02:04:11.662Z,3.20
2023-03-29T02:06:38.333Z,3.13
2023-03-29T02:09:05.033Z,3.31
2023-03-29T02:11:31.702Z,3.07
2023-03-29T02:13:58.375Z,3.46
2023-03-29T02:16:25.061Z,3.40
2023-03-29T02:18:51.748Z,3.56
2023-03-29T02:21:46.590Z,3.55
2023-03-29T02:24:13.280Z,3.58
2023-03-29T02:26:39.915Z,3.41
2023-03-29T02:29:06.555Z,3.58
2023-03-29T02:31:39.091Z,3.78
2023-03-29T02:34:06.920Z,3.59
2023-03-29T02:36:39.123Z,4.23
2023-03-29T02:39:05.796Z,3.83
2023-03-29T02:41:32.480Z,4.06
2023-03-29T02:43:59.121Z,3.77
2023-03-29T02:46:25.782Z,3.66
2023-03-29T02:48:52.632Z,3.92
2023-03-29T02:51:22.478Z,3.65
2023-03-29T02:53:53.285Z,3.35
2023-03-29T02:56:20.326Z,3.53
2023-03-29T02:58:46.983Z,3.65
2023-03-29T03:01:13.665Z,3.41
2023-03-29T03:03:40.382Z,3.59
2023-03-29T03:06:07.093Z,3.27
2023-03-29T03:08:33.686Z,3.11
2023-03-29T03:11:00.547Z,2.91
2023-03-29T03:13:27.380Z,3.58
2023-03-29T03:15:54.015Z,3.94
2023-03-29T03:18:20.651Z,3.77
2023-03-29T03:20:59.395Z,3.25
2023-03-29T03:23:26.272Z,2.97
2023-03-29T03:25:52.959Z,3.13
2023-03-29T03:28:20.236Z,2.97
2023-03-29T03:30:46.888Z,3.32
2023-03-29T03:33:13.529Z,3.01
2023-03-29T03:35:40.168Z,2.87
2023-03-29T03:38:06.764Z,2.93
2023-03-29T03:40:33.377Z,3.11
2023-03-29T03:43:00.121Z,2.72
2023-03-29T03:45:26.748Z,3.06
2023-03-29T03:47:53.482Z,2.97
2023-03-29T03:50:20.152Z,3.16
2023-03-29T03:52:46.815Z,3.30
2023-03-29T03:55:13.450Z,3.08
2023-03-29T03:57:40.424Z,3.01
2023-03-29T04:00:07.721Z,3.01
2023-03-29T04:02:34.375Z,3.01
2023-03-29T04:05:01.041Z,2.88
2023-03-29T04:07:27.781Z,2.84
2023-03-29T04:09:54.376Z,2.87
2023-03-29T04:12:21.026Z,2.95
2023-03-29T04:14:47.670Z,2.62
2023-03-29T04:17:14.251Z,2.66
2023-03-29T04:19:40.847Z,2.82
2023-03-29T04:22:07.459Z,2.97
2023-03-29T04:24:34.071Z,3.01
2023-03-29T04:27:00.721Z,2.97
2023-03-29T04:29:27.382Z,2.92
2023-03-29T04:31:54.450Z,3.24
2023-03-29T04:34:21.096Z,3.04
2023-03-29T04:36:47.781Z,2.73
2023-03-29T04:39:14.400Z,2.73
2023-03-29T04:41:41.030Z,2.96
2023-03-29T04:44:07.681Z,2.73
2023-03-29T04:46:34.360Z,2.49
2023-03-29T04:49:01.082Z,3.04
2023-03-29T04:51:27.742Z,2.36
2023-03-29T04:53:54.506Z,2.37
2023-03-29T04:56:21.161Z,2.34
2023-03-29T04:58:47.763Z,2.61
2023-03-29T05:01:14.349Z,2.45
2023-03-29T05:03:41.018Z,2.59
2023-03-29T05:06:09.079Z,2.36
2023-03-29T05:08:36.203Z,2.56
2023-03-29T05:11:02.989Z,2.38
2023-03-29T05:13:29.800Z,3.00
2023-03-29T05:15:56.463Z,2.92
2023-03-29T05:18:23.151Z,2.84
2023-03-29T05:20:51.240Z,2.69
2023-03-29T05:23:17.820Z,2.97
2023-03-29T05:25:44.517Z,3.68
2023-03-29T05:28:11.170Z,4.77
2023-03-29T05:30:37.829Z,4.08
2023-03-29T05:33:04.584Z,3.31
2023-03-29T05:35:31.549Z,2.80
2023-03-29T05:37:58.224Z,3.31
2023-03-29T05:40:24.825Z,2.54
2023-03-29T05:42:51.808Z,2.55
2023-03-29T05:45:18.715Z,2.51
2023-03-29T05:47:45.454Z,2.86
2023-03-29T05:50:12.198Z,2.83
2023-03-29T05:52:38.869Z,2.78
2023-03-29T05:55:05.856Z,3.04
2023-03-29T05:57:32.564Z,2.62
2023-03-29T05:59:59.249Z,3.16
2023-03-29T06:02:26.209Z,3.12
2023-03-29T06:04:52.984Z,3.01
2023-03-29T06:07:19.655Z,2.92
2023-03-29T06:09:46.309Z,2.34
2023-03-29T06:12:12.965Z,2.72
2023-03-29T06:14:39.694Z,2.72
2023-03-29T06:17:06.408Z,2.71
2023-03-29T06:19:33.044Z,3.24
2023-03-29T06:21:59.692Z,3.53
2023-03-29T06:24:26.311Z,3.26
2023-03-29T06:26:52.958Z,3.30
2023-03-29T06:29:19.653Z,3.25
2023-03-29T06:31:46.379Z,3.33
2023-03-29T06:34:13.068Z,3.35
2023-03-29T06:36:39.660Z,3.19
2023-03-29T06:39:06.253Z,2.90
2023-03-29T06:41:32.849Z,3.38
2023-03-29T06:43:59.762Z,3.10
2023-03-29T06:46:26.500Z,3.15
2023-03-29T06:48:53.189Z,2.88
2023-03-29T06:51:21.902Z,3.00
2023-03-29T06:53:49.878Z,3.37
2023-03-29T06:56:16.481Z,3.13
2023-03-29T06:58:43.162Z,3.15
2023-03-29T07:01:09.772Z,3.27
2023-03-29T07:03:36.355Z,2.91
2023-03-29T07:06:03.450Z,3.09
2023-03-29T07:08:30.172Z,3.09
2023-03-29T07:10:56.774Z,2.99
2023-03-29T07:13:23.424Z,3.37
2023-03-29T07:15:50.142Z,3.38
2023-03-29T07:18:16.758Z,3.20
2023-03-29T07:20:43.365Z,3.44
2023-03-29T07:23:10.187Z,3.06
2023-03-29T07:25:37.067Z,2.77
2023-03-29T07:28:03.892Z,2.43
2023-03-29T07:30:32.393Z,2.74
2023-03-29T07:32:59.380Z,3.07
2023-03-29T07:35:26.373Z,2.42
2023-03-29T07:37:52.972Z,2.32
2023-03-29T07:40:19.840Z,2.80
2023-03-29T07:42:46.464Z,2.62
2023-03-29T07:45:13.465Z,2.69
2023-03-29T07:47:40.948Z,2.56
2023-03-29T07:50:08.402Z,2.50
2023-03-29T07:52:36.259Z,2.19
2023-03-29T07:55:02.928Z,2.11
2023-03-29T07:57:29.550Z,2.11
2023-03-29T07:59:56.202Z,1.92
2023-03-29T08:02:22.830Z,2.18
2023-03-29T08:04:49.647Z,2.14
2023-03-29T08:07:18.905Z,1.96
2023-03-29T08:09:45.693Z,2.22
2023-03-29T08:12:12.396Z,2.02
2023-03-29T08:14:39.050Z,2.33
2023-03-29T08:17:05.944Z,2.30
2023-03-29T08:19:32.603Z,2.22
2023-03-29T08:21:59.932Z,2.30
2023-03-29T08:24:26.570Z,2.59
2023-03-29T08:26:53.176Z,2.60
2023-03-29T08:29:19.856Z,2.67
2023-03-29T08:31:46.538Z,2.31
2023-03-29T08:34:13.679Z,2.34
2023-03-29T08:36:40.358Z,2.30
2023-03-29T08:39:07.064Z,2.23
2023-03-29T08:41:47.249Z,2.37
2023-03-29T08:44:35.203Z,2.67
2023-03-29T08:47:33.308Z,2.53
2023-03-29T08:49:59.965Z,2.75
2023-03-29T08:52:54.440Z,3.15
2023-03-29T08:55:27.292Z,2.33
2023-03-29T08:57:53.984Z,2.31
2023-03-29T09:00:40.265Z,2.36
2023-03-29T09:03:21.465Z,2.06
2023-03-29T09:05:49.611Z,1.96
2023-03-29T09:08:17.219Z,1.99
2023-03-29T09:10:48.917Z,2.05
2023-03-29T09:13:23.020Z,2.34
2023-03-29T09:15:59.013Z,2.13
2023-03-29T09:18:57.927Z,2.14
2023-03-29T09:21:39.543Z,1.95
2023-03-29T09:24:28.192Z,1.97
2023-03-29T09:27:07.849Z,1.97
2023-03-29T09:29:40.489Z,2.09
2023-03-29T09:32:13.814Z,1.95
2023-03-29T09:34:43.528Z,2.14
2023-03-29T09:37:18.763Z,2.02
2023-03-29T09:39:45.379Z,2.05
2023-03-29T09:42:12.041Z,2.07
2023-03-29T09:44:49.626Z,2.31
2023-03-29T09:47:34.612Z,2.03
2023-03-29T09:50:14.028Z,2.09
2023-03-29T09:52:47.725Z,2.42
2023-03-29T09:55:14.731Z,1.78
2023-03-29T09:57:41.618Z,2.01
2023-03-29T10:00:08.608Z,2.19
2023-03-29T10:02:35.272Z,2.14
2023-03-29T10:05:04.342Z,2.21
2023-03-29T10:07:37.090Z,2.32
2023-03-29T10:10:06.834Z,2.20
2023-03-29T10:12:33.553Z,2.19
2023-03-29T10:15:00.293Z,2.39
2023-03-29T10:17:28.545Z,2.42
2023-03-29T10:20:07.495Z,2.38
2023-03-29T10:22:36.588Z,2.04
2023-03-29T10:25:03.838Z,2.14
2023-03-29T10:27:31.749Z,2.16
2023-03-29T10:29:59.130Z,2.20
2023-03-29T10:32:30.606Z,2.31
2023-03-29T10:35:07.783Z,2.37
2023-03-29T10:37:34.503Z,2.17
2023-03-29T10:40:01.193Z,2.25
2023-03-29T10:42:27.790Z,2.56
2023-03-29T10:44:55.785Z,2.54
2023-03-29T10:47:22.484Z,2.39
2023-03-29T10:49:58.947Z,2.18
2023-03-29T10:52:25.736Z,2.40
2023-03-29T10:54:53.858Z,2.32
2023-03-29T10:57:50.564Z,2.56
2023-03-29T11:00:40.568Z,2.29
2023-03-29T11:03:25.283Z,2.26
2023-03-29T11:06:04.330Z,2.13
2023-03-29T11:08:57.964Z,2.47
2023-03-29T11:11:45.301Z,2.54
2023-03-29T11:14:14.861Z,2.63
2023-03-29T11:17:03.616Z,2.80
2023-03-29T11:19:44.399Z,3.01
2023-03-29T11:22:24.381Z,2.86
2023-03-29T11:25:00.120Z,4.16
2023-03-29T11:27:32.765Z,3.24
2023-03-29T11:30:30.291Z,2.50
2023-03-29T11:33:09.196Z,2.67
2023-03-29T11:35:58.024Z,2.86
2023-03-29T11:38:36.674Z,2.93
2023-03-29T11:41:22.873Z,3.07
2023-03-29T11:43:57.488Z,3.05
2023-03-29T11:46:29.472Z,2.38
2023-03-29T11:49:20.986Z,2.54
2023-03-29T11:52:24.392Z,2.81
2023-03-29T11:55:04.691Z,2.44
2023-03-29T11:57:36.456Z,2.83
2023-03-29T12:00:21.598Z,2.79
2023-03-29T12:03:02.402Z,3.01
2023-03-29T12:05:56.766Z,3.00
2023-03-29T12:08:29.378Z,2.76
2023-03-29T12:11:02.196Z,2.70
2023-03-29T12:13:34.736Z,2.75
2023-03-29T12:16:06.804Z,2.76
2023-03-29T12:18:41.300Z,2.49
2023-03-29T12:21:21.707Z,2.76
2023-03-29T12:23:48.456Z,2.77
2023-03-29T12:26:23.973Z,2.54
2023-03-29T12:29:38.233Z,2.83
2023-03-29T12:32:29.313Z,2.86
2023-03-29T12:35:02.838Z,2.86
2023-03-29T12:38:05.146Z,2.84
2023-03-29T12:40:57.115Z,2.77
2023-03-29T12:43:34.059Z,2.63
2023-03-29T12:46:16.884Z,2.59
2023-03-29T12:48:44.446Z,2.77
2023-03-29T12:51:15.381Z,3.12
2023-03-29T12:53:43.737Z,2.90
2023-03-29T12:56:14.600Z,3.00
2023-03-29T12:58:59.574Z,2.84
2023-03-29T13:01:34.090Z,2.60
2023-03-29T13:04:00.648Z,2.79
2023-03-29T13:06:32.263Z,2.52
2023-03-29T13:09:04.070Z,2.71
2023-03-29T13:11:39.523Z,2.76
2023-03-29T13:14:13.036Z,2.89
2023-03-29T13:16:39.632Z,2.85
2023-03-29T13:19:24.821Z,3.08
2023-03-29T13:22:15.583Z,2.97
2023-03-29T13:24:46.221Z,2.97
2023-03-29T13:27:37.016Z,3.17
2023-03-29T13:30:26.542Z,2.72
2023-03-29T13:33:11.873Z,2.99
2023-03-29T13:35:57.752Z,3.10
2023-03-29T13:38:27.657Z,2.62
2023-03-29T13:40:54.177Z,2.46
2023-03-29T13:43:22.892Z,2.77
2023-03-29T13:45:58.165Z,3.23
2023-03-29T13:48:37.316Z,3.08
2023-03-29T13:51:19.094Z,2.90
2023-03-29T13:53:58.555Z,2.99
2023-03-29T13:56:27.136Z,2.88
2023-03-29T13:58:55.540Z,3.65
2023-03-29T14:01:35.497Z,3.22
2023-03-29T14:04:02.153Z,3.38
2023-03-29T14:06:33.239Z,8.61
2023-03-29T14:09:02.605Z,3.73
2023-03-29T14:11:29.668Z,2.64
2023-03-29T14:13:57.620Z,2.83
2023-03-29T14:16:31.213Z,2.78
2023-03-29T14:19:34.552Z,2.95
2023-03-29T14:22:01.613Z,3.08
2023-03-29T14:24:35.061Z,3.04
2023-03-29T14:27:02.507Z,2.99
2023-03-29T14:29:35.426Z,3.00
2023-03-29T14:32:12.053Z,3.37
2023-03-29T14:34:39.361Z,3.14
2023-03-29T14:37:06.435Z,3.24
2023-03-29T14:39:33.480Z,3.07
2023-03-29T14:42:00.204Z,3.35
2023-03-29T14:44:30.968Z,2.81
2023-03-29T14:46:57.628Z,2.72
2023-03-29T14:49:24.278Z,2.67
2023-03-29T14:51:50.878Z,2.64
2023-03-29T14:54:27.744Z,2.91
2023-03-29T14:56:54.692Z,3.12
2023-03-29T14:59:29.470Z,2.95
2023-03-29T15:01:56.103Z,3.00
2023-03-29T15:04:22.773Z,3.13
2023-03-29T15:06:49.443Z,3.50
2023-03-29T15:09:36.274Z,3.26
2023-03-29T15:12:03.000Z,3.30
2023-03-29T15:14:32.962Z,3.49
2023-03-29T15:17:04.663Z,3.16
2023-03-29T15:19:31.384Z,3.34
2023-03-29T15:21:59.355Z,3.31
2023-03-29T15:24:31.346Z,3.29
2023-03-29T15:27:05.500Z,3.19
2023-03-29T15:29:42.430Z,3.68
2023-03-29T15:32:32.823Z,3.50
2023-03-29T15:35:04.233Z,3.38
2023-03-29T15:37:31.184Z,3.45
2023-03-29T15:39:58.076Z,3.75
2023-03-29T15:42:25.007Z,3.53
2023-03-29T15:44:55.185Z,3.19
2023-03-29T15:47:21.795Z,3.43
2023-03-29T15:49:48.408Z,3.42
2023-03-29T15:52:15.188Z,3.43
2023-03-29T15:54:41.798Z,3.40
2023-03-29T15:57:13.508Z,2.82
2023-03-29T15:59:40.217Z,3.32
2023-03-29T16:02:06.957Z,3.12
2023-03-29T16:04:33.753Z,3.67
2023-03-29T16:07:00.397Z,3.11
2023-03-29T16:09:27.045Z,3.41
2023-03-29T16:11:53.690Z,3.94
2023-03-29T16:14:21.162Z,3.84
2023-03-29T16:16:47.895Z,3.76
2023-03-29T16:19:14.611Z,4.03
2023-03-29T16:21:41.609Z,4.20
2023-03-29T16:24:18.652Z,3.96
2023-03-29T16:26:45.830Z,4.41
2023-03-29T16:29:12.611Z,4.59
2023-03-29T16:31:39.355Z,4.47
2023-03-29T16:34:06.009Z,4.30
2023-03-29T16:36:32.688Z,3.77
2023-03-29T16:38:59.566Z,3.95
2023-03-29T16:41:26.315Z,3.90
2023-03-29T16:43:53.198Z,4.29
2023-03-29T16:46:19.863Z,3.98
2023-03-29T16:48:46.512Z,4.27
2023-03-29T16:51:13.124Z,4.16
2023-03-29T16:53:39.772Z,4.22
2023-03-29T16:56:06.905Z,3.95
2023-03-29T16:58:33.609Z,4.29
2023-03-29T17:01:09.980Z,4.84
2023-03-29T17:03:37.162Z,6.08
2023-03-29T17:06:04.659Z,6.77
2023-03-29T17:08:31.880Z,5.97
2023-03-29T17:10:58.577Z,5.29
2023-03-29T17:13:25.332Z,5.58
2023-03-29T17:15:52.868Z,5.59
2023-03-29T17:18:20.284Z,5.43
2023-03-29T17:20:46.961Z,4.63
2023-03-29T17:23:13.738Z,4.82
2023-03-29T17:25:40.496Z,5.11
2023-03-29T17:28:07.105Z,4.73
2023-03-29T17:30:34.521Z,5.60
2023-03-29T17:33:01.254Z,5.55
2023-03-29T17:35:28.247Z,5.34
2023-03-29T17:37:54.905Z,5.47
2023-03-29T17:40:21.885Z,4.68
2023-03-29T17:42:48.610Z,4.90
2023-03-29T17:45:15.699Z,4.19
2023-03-29T17:47:42.370Z,4.85
2023-03-29T17:50:09.925Z,4.65
2023-03-29T17:52:36.676Z,5.62
2023-03-29T17:55:03.411Z,5.00
2023-03-29T17:57:30.034Z,4.84
2023-03-29T17:59:56.679Z,4.79
2023-03-29T18:02:24.386Z,5.88
2023-03-29T18:04:51.208Z,6.01
2023-03-29T18:07:18.011Z,4.94
2023-03-29T18:09:44.742Z,4.41
2023-03-29T18:12:11.437Z,4.37
2023-03-29T18:14:38.213Z,4.87
2023-03-29T18:17:04.879Z,5.20
2023-03-29T18:19:31.557Z,5.10
2023-03-29T18:21:58.199Z,4.95
2023-03-29T18:24:25.009Z,4.89
2023-03-29T18:26:51.644Z,6.09
2023-03-29T18:29:18.303Z,5.97
2023-03-29T18:31:45.073Z,4.99
2023-03-29T18:34:12.004Z,5.42
2023-03-29T18:36:38.616Z,5.10
2023-03-29T18:39:05.279Z,7.40
2023-03-29T18:41:35.402Z,10.36
2023-03-29T18:44:02.147Z,7.78
2023-03-29T18:46:28.893Z,7.94
2023-03-29T18:48:56.037Z,6.25
2023-03-29T18:51:22.873Z,6.34
2023-03-29T18:53:49.530Z,5.81
2023-03-29T18:56:16.414Z,6.75
2023-03-29T18:58:43.061Z,6.73
2023-03-29T19:01:09.892Z,6.72
2023-03-29T19:03:36.791Z,6.77
2023-03-29T19:06:03.846Z,8.29
2023-03-29T19:08:30.815Z,9.26
2023-03-29T19:11:01.304Z,20.89
2023-03-29T19:13:27.970Z,15.17
2023-03-29T19:15:54.772Z,10.02
2023-03-29T19:18:21.509Z,8.52
2023-03-29T19:20:49.539Z,7.29
2023-03-29T19:23:16.307Z,7.40
2023-03-29T19:25:42.982Z,8.03
2023-03-29T19:28:09.820Z,7.12
2023-03-29T19:30:36.514Z,6.39
2023-03-29T19:33:03.141Z,6.24
2023-03-29T19:35:29.890Z,7.12
2023-03-29T19:37:56.509Z,6.76
2023-03-29T19:40:23.165Z,7.32
2023-03-29T19:42:49.989Z,7.26
2023-03-29T19:45:16.660Z,5.99
2023-03-29T19:47:43.462Z,5.50
2023-03-29T19:50:10.379Z,5.67
2023-03-29T19:52:37.006Z,6.20
2023-03-29T19:55:03.829Z,6.54
2023-03-29T19:57:30.486Z,6.51
2023-03-29T19:59:57.229Z,5.94
2023-03-29T20:02:23.885Z,5.83
2023-03-29T20:04:50.619Z,5.56
2023-03-29T20:07:17.274Z,5.87
2023-03-29T20:09:45.311Z,5.37
2023-03-29T20:12:12.143Z,5.44
2023-03-29T20:14:39.069Z,5.83
2023-03-29T20:17:06.386Z,6.70
2023-03-29T20:19:33.271Z,6.71
2023-03-29T20:21:59.906Z,6.80
2023-03-29T20:24:26.599Z,8.36
2023-03-29T20:26:53.195Z,6.38
2023-03-29T20:29:19.866Z,6.01
2023-03-29T20:31:46.615Z,6.54
2023-03-29T20:34:13.359Z,6.74
2023-03-29T20:36:40.035Z,5.96
2023-03-29T20:39:06.977Z,7.22
2023-03-29T20:41:33.670Z,6.65
2023-03-29T20:44:00.422Z,7.31
2023-03-29T20:46:27.847Z,7.57
2023-03-29T20:48:54.481Z,7.07
2023-03-29T20:51:21.988Z,6.69
2023-03-29T20:53:50.968Z,6.97
2023-03-29T20:56:20.464Z,7.46
2023-03-29T20:58:49.366Z,7.56
2023-03-29T21:01:17.246Z,7.89
2023-03-29T21:03:46.621Z,6.88
2023-03-29T21:06:13.391Z,5.94
2023-03-29T21:08:40.273Z,7.48
2023-03-29T21:11:06.972Z,7.26
2023-03-29T21:13:36.919Z,7.12
2023-03-29T21:16:04.013Z,7.10
2023-03-29T21:18:31.381Z,6.61
2023-03-29T21:20:58.562Z,5.95
2023-03-29T21:23:25.236Z,5.75
2023-03-29T21:25:52.071Z,5.70
2023-03-29T21:28:18.679Z,6.40
2023-03-29T21:30:45.348Z,7.52
2023-03-29T21:33:12.192Z,6.21
2023-03-29T21:35:38.812Z,6.56
2023-03-29T21:38:05.677Z,6.48
2023-03-29T21:40:32.705Z,6.57
2023-03-29T21:42:59.921Z,6.44
2023-03-29T21:45:26.612Z,6.62
2023-03-29T21:47:53.493Z,6.59
2023-03-29T21:50:20.584Z,6.79
2023-03-29T21:52:47.316Z,7.29
2023-03-29T21:55:13.997Z,6.49
2023-03-29T21:57:40.661Z,6.10
2023-03-29T22:00:10.985Z,6.50
2023-03-29T22:02:38.448Z,6.68
2023-03-29T22:05:05.612Z,6.37
2023-03-29T22:07:33.125Z,7.20
2023-03-29T22:09:59.967Z,7.89
2023-03-29T22:12:26.834Z,7.53
2023-03-29T22:14:54.124Z,7.86
2023-03-29T22:17:20.780Z,7.22
2023-03-29T22:19:47.433Z,6.65
2023-03-29T22:22:14.388Z,6.96
2023-03-29T22:24:41.569Z,7.41
2023-03-29T22:27:08.286Z,6.34
2023-03-29T22:29:34.930Z,7.71
2023-03-29T22:32:01.561Z,7.35
2023-03-29T22:34:28.240Z,6.50
2023-03-29T22:36:54.941Z,6.75
2023-03-29T22:39:21.652Z,6.09
2023-03-29T22:41:48.327Z,7.48
2023-03-29T22:44:14.954Z,6.60
2023-03-29T22:46:41.657Z,6.37
2023-03-29T22:49:08.301Z,6.80
2023-03-29T22:51:34.948Z,6.94
2023-03-29T22:54:01.565Z,6.78
2023-03-29T22:56:28.208Z,6.41
2023-03-29T22:58:54.925Z,5.95
2023-03-29T23:01:21.672Z,6.81
2023-03-29T23:03:48.309Z,6.71
2023-03-29T23:06:14.933Z,6.71
2023-03-29T23:08:41.526Z,8.01
2023-03-29T23:11:08.188Z,6.38
2023-03-29T23:13:34.814Z,5.85
2023-03-29T23:16:01.747Z,5.95
2023-03-29T23:18:28.864Z,6.53
2023-03-29T23:20:56.201Z,6.56
2023-03-29T23:23:23.759Z,6.39
2023-03-29T23:25:50.932Z,6.45
2023-03-29T23:28:18.565Z,6.43
2023-03-29T23:30:45.163Z,5.77
2023-03-29T23:33:11.868Z,6.43
2023-03-29T23:35:38.582Z,6.23
2023-03-29T23:38:05.239Z,7.08
2023-03-29T23:40:31.922Z,7.52
2023-03-29T23:42:58.526Z,6.21
2023-03-29T23:45:25.206Z,6.09
2023-03-29T23:47:51.896Z,5.98
2023-03-29T23:50:18.622Z,6.32
2023-03-29T23:52:45.232Z,6.24
2023-03-29T23:55:13.330Z,6.10
2023-03-29T23:57:40.240Z,6.22
